Flight Track Log - Related Links

Times and Time Zones

All times are in EDT time to prevent confusion due to time zone crossing. See the FLG3651 flight status page for this flight to view local times or setup timezone preferences in your user account.

Time Position Orientation Groundspeed Altitude Reporting Facility
EDT Latitude Longitude Course Direction KTS MPH feet Rate Location/Type
Sun 11:46:49 AM 39.0333 -84.6667 65° Northeast 169 194 1,500  Level Cincinnati TRACON
Sun 11:47:19 AM 39.0167 -84.6500 142° Southeast 179 206 2,500 2,231 Climbing Cincinnati TRACON
Sun 11:48:07 AM 39.0167 -84.6000 90° East 205 236 4,400 2,211 Climbing Cincinnati TRACON
Sun 11:49:00 AM 39.0101 -84.2825 62° Northeast  Level FlightAware Approximate
Sun 11:49:13 AM 39.0500 -84.5000 67° East 268 308 6,700  Level Cincinnati TRACON
Sun 11:50:00 AM 39.0624 -84.1398 49° Northeast  Level FlightAware Approximate
Sun 11:50:19 AM 39.0667 -84.4000 78° East 276 318 9,600  Level Cincinnati TRACON
Sun 11:50:41 AM 39.0789 -84.3731 60° Northeast 270 311 10,300 1,357 Climbing Indianapolis Center
Sun 11:51:00 AM 39.1485 -84.0227 44° Northeast  Level FlightAware Approximate
Sun 11:51:43 AM 39.1092 -84.2650 70° East 311 358 11,500  Level Indianapolis Center
Sun 11:52:00 AM 39.2124 -83.8854 65° Northeast  Level FlightAware Approximate
Sun 11:52:45 AM 39.1428 -84.1436 70° East 351 404 13,200  Level Indianapolis Center
Sun 11:53:47 AM 39.1789 -84.0175 70° East 369 425 14,900 1,707 Climbing Indianapolis Center
Sun 11:54:48 AM 39.2206 -83.8922 67° East 376 433 16,700 1,415 Climbing Indianapolis Center
Sun 11:55:50 AM 39.2692 -83.7681 63° Northeast 383 441 17,800 1,306 Climbing Indianapolis Center
Sun 11:56:52 AM 39.3247 -83.6189 64° Northeast 392 451 19,400 1,463 Climbing Indianapolis Center
Sun 11:57:53 AM 39.3739 -83.4919 63° Northeast 393 452 20,800 1,268 Climbing Indianapolis Center
Sun 11:58:55 AM 39.4219 -83.3619 64° Northeast 400 460 22,000 1,065 Climbing Indianapolis Center
Sun 11:59:57 AM 39.4717 -83.2286 64° Northeast 411 473 23,000 976 Climbing Indianapolis Center
Sun 12:00:58 PM 39.4986 -83.0844 76° East 413 475 24,000 927 Climbing Indianapolis Center
Sun 12:02:00 PM 39.5239 -82.9353 78° East 420 483 24,900 774 Climbing Indianapolis Center
Sun 12:03:02 PM 39.5486 -82.7850 78° East 426 490 25,600 683 Climbing Indianapolis Center
Sun 12:04:03 PM 39.5736 -82.6292 78° East 436 502 26,300 780 Climbing Indianapolis Center
Sun 12:05:05 PM 39.6036 -82.4461 78° East 442 509 27,200 774 Climbing Indianapolis Center
Sun 12:06:07 PM 39.6294 -82.2878 78° East 446 513 27,900 585 Climbing Indianapolis Center
Sun 12:07:08 PM 39.6533 -82.1286 79° East 448 516 28,400 488 Climbing Indianapolis Center
Sun 12:08:10 PM 39.6794 -81.9667 78° East 454 522 28,900 484 Climbing Indianapolis Center
Sun 12:09:12 PM 39.7053 -81.8036 78° East 457 526 29,400 484 Climbing Indianapolis Center
Sun 12:10:14 PM 39.7292 -81.6386 79° East 462 532 29,900 488 Climbing Indianapolis Center
Sun 12:11:15 PM 39.7536 -81.4758 79° East 458 527 30,400 390 Climbing Indianapolis Center
Sun 12:12:17 PM 39.7806 -81.3117 78° East 464 534 30,700 290 Climbing Indianapolis Center
Sun 12:13:19 PM 39.8047 -81.1456 79° East 468 539 31,000 146 Climbing Indianapolis Center
Sun 12:14:20 PM 39.8347 -80.9439 79° East 474 545 31,000  Level Indianapolis Center
Sun 12:15:22 PM 39.8589 -80.7708 80° East 483 556 31,000  Level Indianapolis Center
Sun 12:16:28 PM 39.8878 -80.5803 79° East 477 549 31,000  Level Cleveland Center
Sun 12:17:28 PM 39.9147 -80.4044 79° East 489 563 31,000  Level Cleveland Center
Sun 12:18:28 PM 39.9561 -80.2336 72° East 484 557 31,000  Level Cleveland Center
Sun 12:19:28 PM 40.0033 -80.0628 70° East 489 563 31,000  Level Cleveland Center
Sun 12:20:28 PM 40.0483 -79.8889 71° East 500 575 31,000  Level Cleveland Center
Sun 12:21:28 PM 40.0867 -79.7147 74° East 500 575 31,000  Level Cleveland Center
Sun 12:22:28 PM 40.1083 -79.5517 80° East 500 575 31,000  Level Cleveland Center
Sun 12:23:28 PM 40.1336 -79.3719 80° East 506 582 31,000  Level Cleveland Center
Sun 12:24:28 PM 40.1564 -79.1733 81° East 506 582 31,000  Level Cleveland Center
Sun 12:25:28 PM 40.1792 -78.9961 80° East 501 577 31,000  Level Cleveland Center
Sun 12:26:28 PM 40.2056 -78.8133 79° East 506 582 31,000 -100 Level Cleveland Center
Sun 12:27:28 PM 40.2278 -78.6333 81° East 501 577 30,800 -900 Descending Cleveland Center
Sun 12:28:28 PM 40.2517 -78.4531 80° East 501 577 29,200 -1,538 Descending Cleveland Center
Sun 12:30:04 PM 40.2853 -78.1808 81° East 487 560 26,800 -1,577 Descending New York Center
Sun 12:31:04 PM 40.3067 -78.0061 81° East 482 555 25,100 -900 Descending New York Center
Sun 12:32:04 PM 40.3106 -77.8375 88° East 471 542 25,000 -350 Descending New York Center
Sun 12:33:04 PM 40.3111 -77.6853 90° East 471 542 24,400 -1,041 Descending New York Center
Sun 12:34:05 PM 40.3081 -77.5214 91° East 462 532 22,900 -1,513 Descending New York Center
Sun 12:35:03 PM 40.3047 -77.3606 92° East 452 520 21,400 -1,576 Descending New York Center
Sun 12:36:03 PM 40.2828 -77.1897 100° East 444 511 19,800 -1,200 Descending New York Center
Sun 12:37:03 PM 40.2639 -77.0411 99° East 430 495 19,000 -843 Descending New York Center
Sun 12:38:04 PM 40.2442 -76.8978 100° East 420 483 18,100 -744 Descending New York Center
Sun 12:39:04 PM 40.2231 -76.7381 100° East 414 476 17,500 -843 Descending New York Center
Sun 12:40:05 PM 40.2033 -76.5925 100° East 414 476 16,400 -1,109 Descending New York Center
Sun 12:41:03 PM 40.1831 -76.4522 101° East 401 461 15,300 -1,389 Descending New York Center
Sun 12:41:40 PM 40.1700 -76.3631 101° East 390 449 14,200 -1,684 Descending FAA TRACON SMA TRACON (SMA)
Sun 12:42:00 PM 40.1642 -76.3200 100° East 384 442 13,700 -1,500 Descending FAA TRACON SMA TRACON (SMA)
Sun 12:42:20 PM 40.1581 -76.2789 101° East 378 435 13,200 -1,756 Descending FAA TRACON SMA TRACON (SMA)
Sun 12:42:41 PM 40.1514 -76.2303 100° East 374 430 12,500 -2,049 Descending FAA TRACON SMA TRACON (SMA)
Sun 12:43:01 PM 40.1450 -76.1883 101° East 366 421 11,800 -2,000 Descending FAA TRACON SMA TRACON (SMA)
Sun 12:43:20 PM 40.1392 -76.1500 101° East 355 409 11,200 -1,846 Descending FAA TRACON SMA TRACON (SMA)
Sun 12:43:40 PM 40.1333 -76.1031 99° East 340 391 10,600 -1,385 Descending FAA TRACON SMA TRACON (SMA)
Sun 12:43:59 PM 40.1286 -76.0706 101° East 330 380 10,300 -900 Descending FAA TRACON SMA TRACON (SMA)
Sun 12:44:20 PM 40.1244 -76.0361 99° East 314 361 10,000 -1,024 Descending FAA TRACON SMA TRACON (SMA)
Sun 12:44:40 PM 40.1175 -75.9947 102° East 297 342 9,600 -1,171 Descending FAA TRACON SMA TRACON (SMA)
Sun 12:45:01 PM 40.1131 -75.9625 100° East 294 338 9,200 -1,143 Descending FAA TRACON SMA TRACON (SMA)
Sun 12:45:22 PM 40.1083 -75.9308 101° East 292 336 8,800 -1,500 Descending FAA TRACON SMA TRACON (SMA)
Sun 12:45:41 PM 40.0953 -75.8958 116° Southeast 286 329 8,200 -1,538 Descending FAA TRACON SMA TRACON (SMA)
Sun 12:46:01 PM 40.0814 -75.8728 128° Southeast 286 329 7,800 -1,350 Descending FAA TRACON SMA TRACON (SMA)
Sun 12:46:21 PM 40.0658 -75.8467 128° Southeast 276 318 7,300 -1,692 Descending FAA TRACON SMA TRACON (SMA)
Sun 12:46:40 PM 40.0467 -75.8158 129° Southeast 280 322 6,700 -1,692 Descending FAA TRACON SMA TRACON (SMA)
Sun 12:47:00 PM 40.0319 -75.7919 129° Southeast 276 318 6,200 -1,077 Descending FAA TRACON SMA TRACON (SMA)
Sun 12:47:19 PM 40.0167 -75.7689 131° Southeast 274 315 6,000 -308 Descending FAA TRACON SMA TRACON (SMA)
Sun 12:47:39 PM 40.0036 -75.7464 127° Southeast 267 307 6,000  Level FAA TRACON SMA TRACON (SMA)
Sun 12:47:59 PM 39.9856 -75.7208 133° Southeast 246 283 6,000  Level FAA TRACON SMA TRACON (SMA)
Sun 12:48:19 PM 39.9728 -75.7000 129° Southeast 246 283 6,000  Level FAA TRACON SMA TRACON (SMA)
Sun 12:48:39 PM 39.9589 -75.6789 131° Southeast 248 285 6,000  Level FAA TRACON SMA TRACON (SMA)
Sun 12:48:59 PM 39.9417 -75.6517 130° Southeast 250 288 6,000  Level FAA TRACON SMA TRACON (SMA)
Sun 12:49:19 PM 39.9286 -75.6306 129° Southeast 252 290 6,000  Level FAA TRACON SMA TRACON (SMA)
Sun 12:49:39 PM 39.9117 -75.6050 131° Southeast 249 287 6,000 -300 Level FAA TRACON SMA TRACON (SMA)
Sun 12:49:59 PM 39.8989 -75.5864 132° Southeast 218 251 5,800 -878 Descending FAA TRACON SMA TRACON (SMA)
Sun 12:50:20 PM 39.8869 -75.5692 132° Southeast 205 236 5,400 -1,200 Descending FAA TRACON SMA TRACON (SMA)
Sun 12:50:39 PM 39.8656 -75.5608 163° South 202 232 5,000 -615 Descending FAA TRACON SMA TRACON (SMA)
Sun 12:50:59 PM 39.8489 -75.5567 169° South 212 244 5,000  Level FAA TRACON SMA TRACON (SMA)
Sun 12:51:19 PM 39.8311 -75.5528 170° South 210 242 5,000  Level FAA TRACON SMA TRACON (SMA)
Sun 12:51:39 PM 39.8083 -75.5553 185° South 221 254 5,000  Level FAA TRACON SMA TRACON (SMA)
Sun 12:51:59 PM 39.7906 -75.5586 188° South 219 252 5,000  Level FAA TRACON SMA TRACON (SMA)
Sun 12:52:19 PM 39.7728 -75.5550 171° South 211 243 5,000 -150 Level FAA TRACON SMA TRACON (SMA)
Sun 12:52:39 PM 39.7633 -75.5331 119° Southeast 177 204 4,900 -750 Descending FAA TRACON SMA TRACON (SMA)
Sun 12:52:59 PM 39.7697 -75.5144 66° East 204 235 4,500 -1,200 Descending FAA TRACON SMA TRACON (SMA)
Sun 12:53:19 PM 39.7814 -75.4964 50° Northeast 193 222 4,100 -1,500 Descending FAA TRACON SMA TRACON (SMA)
Sun 12:53:39 PM 39.7942 -75.4767 50° Northeast 192 221 3,500 -1,350 Descending FAA TRACON SMA TRACON (SMA)
Sun 12:53:59 PM 39.8042 -75.4603 52° Northeast 189 217 3,200 -1,024 Descending FAA TRACON SMA TRACON (SMA)
Sun 12:54:20 PM 39.8142 -75.4453 49° Northeast 182 209 2,800 -1,024 Descending FAA TRACON SMA TRACON (SMA)
Sun 12:54:40 PM 39.8264 -75.4286 46° Northeast 167 192 2,500 -750 Descending FAA TRACON SMA TRACON (SMA)
Sun 12:55:00 PM 39.8328 -75.4125 63° Northeast 177 204 2,300 -600 Descending FAA TRACON SMA TRACON (SMA)

Login

Don't have an account? Register now (free) for customized features, flight alerts, and more!